createdAt,value
2023-09-29T00:00:08.338Z,9.279898
2023-09-29T00:01:08.367Z,9.279968
2023-09-29T00:02:08.315Z,9.279940
2023-09-29T00:03:08.352Z,9.279954
2023-09-29T00:04:08.252Z,9.279963
2023-09-29T00:05:08.234Z,9.279954
2023-09-29T00:06:08.229Z,9.279916
2023-09-29T00:07:08.181Z,9.279800
2023-09-29T00:08:08.229Z,9.279881
2023-09-29T00:09:08.190Z,9.279894
2023-09-29T00:10:08.115Z,9.279920
2023-09-29T00:11:09.119Z,9.279970
2023-09-29T00:12:08.077Z,9.279949
2023-09-29T00:13:08.077Z,9.279976
2023-09-29T00:14:08.045Z,9.280033
2023-09-29T00:15:08.032Z,9.279997
2023-09-29T00:16:08.029Z,9.280010
2023-09-29T00:17:07.972Z,9.279925
2023-09-29T00:18:08.043Z,9.279922
2023-09-29T00:19:07.947Z,9.279898
2023-09-29T00:20:07.940Z,9.279902
2023-09-29T00:21:07.913Z,9.279929
2023-09-29T00:22:07.893Z,9.279931
2023-09-29T00:23:07.838Z,9.279974
2023-09-29T00:24:07.814Z,9.280015
2023-09-29T00:25:07.817Z,9.279981
2023-09-29T00:26:07.788Z,9.280006
2023-09-29T00:27:07.760Z,9.279984
2023-09-29T00:28:07.727Z,9.280005
2023-09-29T00:29:07.724Z,9.279987
2023-09-29T00:30:08.714Z,9.280005
2023-09-29T00:31:07.917Z,9.279994
2023-09-29T00:32:07.641Z,9.279977
2023-09-29T00:33:07.695Z,9.279964
2023-09-29T00:34:07.617Z,9.279955
2023-09-29T00:35:07.576Z,9.280020
2023-09-29T00:36:07.557Z,9.280054
2023-09-29T00:37:07.539Z,9.280049
2023-09-29T00:38:07.580Z,9.280068
2023-09-29T00:39:07.544Z,9.280158
2023-09-29T00:40:07.475Z,9.280157
2023-09-29T00:41:07.507Z,9.280167
2023-09-29T00:42:07.522Z,9.280063
2023-09-29T00:43:07.428Z,9.280117
2023-09-29T00:44:07.414Z,9.280102
2023-09-29T00:45:07.408Z,9.280085
2023-09-29T00:46:07.373Z,9.280042
2023-09-29T00:47:07.328Z,9.280089
2023-09-29T00:48:07.416Z,9.280023
2023-09-29T00:49:08.016Z,9.280054
2023-09-29T00:50:07.261Z,9.280152
2023-09-29T00:51:07.226Z,9.280128
2023-09-29T00:52:07.211Z,9.280160
2023-09-29T00:53:07.224Z,9.280073
2023-09-29T00:54:07.171Z,9.279986
2023-09-29T00:55:07.147Z,9.279959
2023-09-29T00:56:07.160Z,9.279990
2023-09-29T00:57:07.201Z,9.280018
2023-09-29T00:58:07.108Z,9.279992
2023-09-29T00:59:07.063Z,9.279963
2023-09-29T01:00:07.043Z,9.280022
2023-09-29T01:01:07.056Z,9.280008
2023-09-29T01:02:07.037Z,9.279984
2023-09-29T01:03:07.220Z,9.280039
2023-09-29T01:04:07.073Z,9.280012
2023-09-29T01:05:06.936Z,9.279972
2023-09-29T01:06:06.961Z,9.279901
2023-09-29T01:07:06.918Z,9.279977
2023-09-29T01:08:06.873Z,9.279976
2023-09-29T01:09:06.873Z,9.279893
2023-09-29T01:10:06.832Z,9.279948
2023-09-29T01:11:06.836Z,9.280009
2023-09-29T01:12:06.796Z,9.280026
2023-09-29T01:13:06.762Z,9.279995
2023-09-29T01:14:06.748Z,9.279927
2023-09-29T01:15:06.753Z,9.280002
2023-09-29T01:16:06.756Z,9.280014
2023-09-29T01:17:08.726Z,9.280037
2023-09-29T01:18:06.804Z,9.279926
2023-09-29T01:19:06.656Z,9.280043
2023-09-29T01:20:07.628Z,9.279981
2023-09-29T01:21:06.653Z,9.279974
2023-09-29T01:22:06.579Z,9.279895
2023-09-29T01:23:06.626Z,9.279968
2023-09-29T01:24:06.532Z,9.279981
2023-09-29T01:25:06.539Z,9.279919
2023-09-29T01:26:06.558Z,9.279983
2023-09-29T01:27:06.473Z,9.279990
2023-09-29T01:28:06.523Z,9.280009
2023-09-29T01:29:06.427Z,9.280020
2023-09-29T01:30:06.430Z,9.279986
2023-09-29T01:31:06.416Z,9.280016
2023-09-29T01:32:06.361Z,9.279936
2023-09-29T01:33:06.501Z,9.279919
2023-09-29T01:34:06.314Z,9.279961
2023-09-29T01:35:06.317Z,9.279905
2023-09-29T01:36:06.325Z,9.279944
2023-09-29T01:37:06.256Z,9.279917
2023-09-29T01:38:06.233Z,9.279986
2023-09-29T01:39:06.252Z,9.279919
2023-09-29T01:40:06.205Z,9.279880
2023-09-29T01:41:06.157Z,9.279961
2023-09-29T01:42:06.138Z,9.280039
2023-09-29T01:43:06.107Z,9.280049
2023-09-29T01:44:07.133Z,9.280046
2023-09-29T01:45:06.073Z,9.279978
2023-09-29T01:46:06.092Z,9.280067
2023-09-29T01:47:06.032Z,9.280071
2023-09-29T01:48:06.129Z,9.279965
2023-09-29T01:49:06.174Z,9.279933
2023-09-29T01:50:05.976Z,9.279862
2023-09-29T01:51:05.984Z,9.279940
2023-09-29T01:52:05.923Z,9.280089
2023-09-29T01:53:05.932Z,9.279770
2023-09-29T01:54:05.944Z,9.279776
2023-09-29T01:55:05.855Z,9.280061
2023-09-29T01:56:05.843Z,9.280010
2023-09-29T01:57:05.814Z,9.280093
2023-09-29T01:58:05.815Z,9.279762
2023-09-29T01:59:05.767Z,9.280019
2023-09-29T02:00:05.748Z,9.280017
2023-09-29T02:01:05.760Z,9.279900
2023-09-29T02:02:05.724Z,9.279984
2023-09-29T02:03:05.776Z,9.279979
2023-09-29T02:04:05.715Z,9.279984
2023-09-29T02:05:05.646Z,9.279918
2023-09-29T02:06:05.635Z,9.279907
2023-09-29T02:07:05.623Z,9.279818
2023-09-29T02:08:05.606Z,9.279819
2023-09-29T02:09:05.588Z,9.279890
2023-09-29T02:10:05.533Z,9.279869
2023-09-29T02:11:05.510Z,9.279925
2023-09-29T02:12:05.520Z,9.279938
2023-09-29T02:13:05.474Z,9.279829
2023-09-29T02:14:05.439Z,9.279990
2023-09-29T02:15:05.407Z,9.280014
2023-09-29T02:16:06.454Z,9.280031
2023-09-29T02:17:05.400Z,9.279917
2023-09-29T02:18:05.527Z,9.279991
2023-09-29T02:19:05.471Z,9.279935
2023-09-29T02:20:05.301Z,9.279902
2023-09-29T02:21:05.349Z,9.279971
2023-09-29T02:22:05.286Z,9.279958
2023-09-29T02:23:05.312Z,9.279988
2023-09-29T02:24:05.213Z,9.280016
2023-09-29T02:25:05.193Z,9.279976
2023-09-29T02:26:05.223Z,9.280000
2023-09-29T02:27:05.179Z,9.279958
2023-09-29T02:28:05.124Z,9.279936
2023-09-29T02:29:05.105Z,9.280074
2023-09-29T02:30:05.082Z,9.279986
2023-09-29T02:31:05.114Z,9.279899
2023-09-29T02:32:05.075Z,9.280002
2023-09-29T02:33:05.055Z,9.279948
2023-09-29T02:34:04.998Z,9.279980
2023-09-29T02:35:05.002Z,9.279984
2023-09-29T02:36:05.017Z,9.280021
2023-09-29T02:37:04.928Z,9.279984
2023-09-29T02:38:04.919Z,9.279963
2023-09-29T02:39:04.915Z,9.279969
2023-09-29T02:40:04.894Z,9.279939
2023-09-29T02:41:04.845Z,9.279930
2023-09-29T02:42:05.605Z,9.279996
2023-09-29T02:43:04.810Z,9.279943
2023-09-29T02:44:04.789Z,9.279982
2023-09-29T02:45:04.800Z,9.280014
2023-09-29T02:46:04.745Z,9.279953
2023-09-29T02:47:04.812Z,9.279939
2023-09-29T02:48:04.730Z,9.279967
2023-09-29T02:49:04.704Z,9.279979
2023-09-29T02:50:04.684Z,9.280028
2023-09-29T02:51:04.714Z,9.279999
2023-09-29T02:52:04.622Z,9.279998
2023-09-29T02:53:04.598Z,9.279980
2023-09-29T02:54:04.608Z,9.280000
2023-09-29T02:55:04.579Z,9.279993
2023-09-29T02:56:04.538Z,9.280034
2023-09-29T02:57:04.550Z,9.279967
2023-09-29T02:58:04.494Z,9.279986
2023-09-29T02:59:04.500Z,9.280014
2023-09-29T03:00:04.446Z,9.280080
2023-09-29T03:01:04.448Z,9.279983
2023-09-29T03:02:06.930Z,9.279947
2023-09-29T03:03:05.536Z,9.279939
2023-09-29T03:04:04.521Z,9.279963
2023-09-29T03:05:04.342Z,9.279971
2023-09-29T03:06:04.350Z,9.279872
2023-09-29T03:07:04.297Z,9.279890
2023-09-29T03:08:04.299Z,9.279932
2023-09-29T03:09:04.298Z,9.279927
2023-09-29T03:10:04.255Z,9.279963
2023-09-29T03:11:04.205Z,9.280009
2023-09-29T03:12:04.274Z,9.280000
2023-09-29T03:13:04.192Z,9.279961
2023-09-29T03:14:04.150Z,9.279961
2023-09-29T03:15:04.181Z,9.279836
2023-09-29T03:16:04.113Z,9.279828
2023-09-29T03:17:04.110Z,9.280006
2023-09-29T03:18:04.155Z,9.279974
2023-09-29T03:19:04.038Z,9.279863
2023-09-29T03:20:04.007Z,9.279977
2023-09-29T03:21:05.037Z,9.279930
2023-09-29T03:22:03.998Z,9.279943
2023-09-29T03:23:03.954Z,9.279964
2023-09-29T03:24:03.970Z,9.279914
2023-09-29T03:25:03.916Z,9.279771
2023-09-29T03:26:03.895Z,9.279887
2023-09-29T03:27:03.939Z,9.279935
2023-09-29T03:28:03.855Z,9.279964
2023-09-29T03:29:03.830Z,9.279870
2023-09-29T03:30:03.833Z,9.279923
2023-09-29T03:31:03.878Z,9.279902
2023-09-29T03:32:03.796Z,9.280031
2023-09-29T03:33:04.792Z,9.279762
2023-09-29T03:34:03.732Z,9.279910
2023-09-29T03:35:03.709Z,9.280066
2023-09-29T03:36:03.747Z,9.280013
2023-09-29T03:37:03.665Z,9.279944
2023-09-29T03:38:03.639Z,9.279849
2023-09-29T03:39:03.649Z,9.279925
2023-09-29T03:40:03.604Z,9.279975
2023-09-29T03:41:03.613Z,9.279960
2023-09-29T03:42:03.604Z,9.279960
2023-09-29T03:43:03.607Z,9.279862
2023-09-29T03:44:03.522Z,9.279944
2023-09-29T03:45:03.532Z,9.279904
2023-09-29T03:46:03.561Z,9.279881
2023-09-29T03:47:03.451Z,9.279863
2023-09-29T03:48:03.496Z,9.279930
2023-09-29T03:49:03.405Z,9.279988
2023-09-29T03:50:03.433Z,9.279966
2023-09-29T03:51:03.394Z,9.279964
2023-09-29T03:52:03.368Z,9.280016
2023-09-29T03:53:03.329Z,9.279980
2023-09-29T03:54:03.339Z,9.280090
2023-09-29T03:55:03.333Z,9.280009
2023-09-29T03:56:03.263Z,9.279879
2023-09-29T03:57:03.246Z,9.279984
2023-09-29T03:58:03.217Z,9.279916
2023-09-29T03:59:03.216Z,9.279945
2023-09-29T04:00:03.247Z,9.279899
2023-09-29T04:01:03.196Z,9.279962
2023-09-29T04:02:03.137Z,9.279994
2023-09-29T04:03:03.274Z,9.280019
2023-09-29T04:04:03.279Z,9.279996
2023-09-29T04:05:03.077Z,9.279966
2023-09-29T04:06:03.143Z,9.280013
2023-09-29T04:07:03.028Z,9.279977
2023-09-29T04:08:03.003Z,9.279918
2023-09-29T04:09:03.070Z,9.279980
2023-09-29T04:10:02.965Z,9.279952
2023-09-29T04:11:02.944Z,9.279933
2023-09-29T04:12:02.959Z,9.280016
2023-09-29T04:13:02.929Z,9.279863
2023-09-29T04:14:02.899Z,9.279874
2023-09-29T04:15:02.877Z,9.279797
2023-09-29T04:16:02.857Z,9.279973
2023-09-29T04:17:02.858Z,9.280009
2023-09-29T04:18:02.900Z,9.279877
2023-09-29T04:19:02.766Z,9.279977
2023-09-29T04:20:02.750Z,9.279911
2023-09-29T04:21:02.755Z,9.279830
2023-09-29T04:22:02.706Z,9.279917
2023-09-29T04:23:02.726Z,9.279865
2023-09-29T04:24:02.709Z,9.279915
2023-09-29T04:25:02.648Z,9.279905
2023-09-29T04:26:02.624Z,9.279856
2023-09-29T04:27:02.640Z,9.279900
2023-09-29T04:28:02.627Z,9.279954
2023-09-29T04:29:04.664Z,9.279967
2023-09-29T04:30:03.586Z,9.279943
2023-09-29T04:31:02.559Z,9.279875
2023-09-29T04:32:02.536Z,9.279819
2023-09-29T04:33:02.553Z,9.279867
2023-09-29T04:34:02.458Z,9.279903
2023-09-29T04:35:02.460Z,9.279886
2023-09-29T04:36:02.411Z,9.280014
2023-09-29T04:37:02.475Z,9.280103
2023-09-29T04:38:02.378Z,9.280066
2023-09-29T04:39:02.431Z,9.279975
2023-09-29T04:40:02.428Z,9.279999
2023-09-29T04:41:02.336Z,9.279911
2023-09-29T04:42:02.368Z,9.279982
2023-09-29T04:43:02.264Z,9.279799
2023-09-29T04:44:02.233Z,9.279771
2023-09-29T04:45:03.268Z,9.279640
2023-09-29T04:46:02.357Z,9.279789
2023-09-29T04:47:02.230Z,9.279898
2023-09-29T04:48:02.246Z,9.279928
2023-09-29T04:49:02.129Z,9.279975
2023-09-29T04:50:02.112Z,9.279819
2023-09-29T04:51:02.174Z,9.279861
2023-09-29T04:52:02.066Z,9.279907
2023-09-29T04:53:02.075Z,9.279939
2023-09-29T04:54:02.128Z,9.279967
2023-09-29T04:55:02.095Z,9.279802
2023-09-29T04:56:02.069Z,9.279896
2023-09-29T04:57:01.991Z,9.279868
2023-09-29T04:58:01.941Z,9.279924
2023-09-29T04:59:01.936Z,9.279983
2023-09-29T05:00:02.998Z,9.279862
2023-09-29T05:01:01.948Z,9.279807
2023-09-29T05:02:01.881Z,9.279831
2023-09-29T05:03:01.928Z,9.279768
2023-09-29T05:04:01.934Z,9.279856
2023-09-29T05:05:01.809Z,9.279869
2023-09-29T05:06:01.828Z,9.279903
2023-09-29T05:07:01.741Z,9.279930
2023-09-29T05:08:01.740Z,9.279876
2023-09-29T05:09:01.773Z,9.279895
2023-09-29T05:10:01.713Z,9.279981
2023-09-29T05:11:01.665Z,9.279962
2023-09-29T05:12:01.706Z,9.279902
2023-09-29T05:13:01.614Z,9.279881
2023-09-29T05:14:01.620Z,9.279916
2023-09-29T05:15:01.629Z,9.280042
2023-09-29T05:16:01.556Z,9.280023
2023-09-29T05:17:01.541Z,9.280059
2023-09-29T05:18:01.601Z,9.280049
2023-09-29T05:19:01.908Z,9.279922
2023-09-29T05:20:01.472Z,9.279995
2023-09-29T05:21:01.550Z,9.279827
2023-09-29T05:22:01.431Z,9.279846
2023-09-29T05:23:01.441Z,9.279890
2023-09-29T05:24:01.451Z,9.279954
2023-09-29T05:25:01.366Z,9.280065
2023-09-29T05:26:01.347Z,9.279915
2023-09-29T05:27:01.333Z,9.279903
2023-09-29T05:28:01.333Z,9.279939
2023-09-29T05:29:01.288Z,9.280188
2023-09-29T05:30:01.312Z,9.280091
2023-09-29T05:31:01.275Z,9.280038
2023-09-29T05:32:01.208Z,9.279905
2023-09-29T05:33:01.349Z,9.279987
2023-09-29T05:34:01.192Z,9.279953
2023-09-29T05:35:01.149Z,9.279983
2023-09-29T05:36:01.191Z,9.279989
2023-09-29T05:37:01.148Z,9.280010
2023-09-29T05:38:01.120Z,9.279954
2023-09-29T05:39:01.103Z,9.280069
2023-09-29T05:40:01.073Z,9.280060
2023-09-29T05:41:01.021Z,9.280022
2023-09-29T05:42:01.081Z,9.279996
2023-09-29T05:43:01.042Z,9.279988
2023-09-29T05:44:00.962Z,9.279958
2023-09-29T05:45:01.012Z,9.279930
2023-09-29T05:46:01.001Z,9.279930
2023-09-29T05:47:00.920Z,9.280005
2023-09-29T05:48:00.918Z,9.279910
2023-09-29T05:49:00.857Z,9.280014
2023-09-29T05:50:15.535Z,9.279989
2023-09-29T05:51:02.892Z,9.279963
2023-09-29T05:52:00.815Z,9.280007
2023-09-29T05:53:10.374Z,9.280068
2023-09-29T05:54:02.822Z,9.280056
2023-09-29T05:55:00.725Z,9.279899
2023-09-29T05:56:00.734Z,9.279865
2023-09-29T05:57:00.741Z,9.279873
2023-09-29T05:58:00.667Z,9.279945
2023-09-29T05:59:00.653Z,9.280002
2023-09-29T06:00:00.778Z,9.279992
2023-09-29T06:01:00.634Z,9.279861
2023-09-29T06:02:16.332Z,9.279736
2023-09-29T06:03:02.888Z,9.279821
2023-09-29T06:04:00.791Z,9.279929
2023-09-29T06:05:00.606Z,9.279964
2023-09-29T06:06:00.563Z,9.279956
2023-09-29T06:07:00.490Z,9.279924
2023-09-29T06:08:00.471Z,9.280039
2023-09-29T06:09:00.490Z,9.279954
2023-09-29T06:10:00.457Z,9.279976
2023-09-29T06:11:00.408Z,9.279963
2023-09-29T06:12:00.441Z,9.279921
2023-09-29T06:13:04.290Z,9.279864
2023-09-29T06:14:00.340Z,9.279903
2023-09-29T06:15:00.469Z,9.279878
2023-09-29T06:16:00.293Z,9.279874
2023-09-29T06:17:00.272Z,9.279822
2023-09-29T06:18:00.409Z,9.279851
2023-09-29T06:19:00.270Z,9.279847
2023-09-29T06:20:00.299Z,9.279736
2023-09-29T06:21:00.269Z,9.279821
2023-09-29T06:22:00.165Z,9.279829
2023-09-29T06:23:00.152Z,9.279784
2023-09-29T06:24:00.166Z,9.279788
2023-09-29T06:25:00.133Z,9.279930
2023-09-29T06:26:00.127Z,9.280004
2023-09-29T06:27:00.351Z,9.279990
2023-09-29T06:28:00.060Z,9.280007
2023-09-29T06:29:00.050Z,9.280021
2023-09-29T06:30:00.027Z,9.280022
2023-09-29T06:31:00.073Z,9.280006
2023-09-29T06:31:59.963Z,9.279974
2023-09-29T06:33:00.111Z,9.280005
2023-09-29T06:34:00.561Z,9.279957
2023-09-29T06:34:59.900Z,9.280022
2023-09-29T06:35:59.923Z,9.280088
2023-09-29T06:36:59.860Z,9.280017
2023-09-29T06:37:59.858Z,9.279942
2023-09-29T06:38:59.841Z,9.279930
2023-09-29T06:39:59.785Z,9.279890
2023-09-29T06:40:59.773Z,9.279919
2023-09-29T06:41:59.783Z,9.279760
2023-09-29T06:42:59.787Z,9.279901
2023-09-29T06:43:59.701Z,9.279901
2023-09-29T06:44:59.751Z,9.280000
2023-09-29T06:46:01.643Z,9.279969
2023-09-29T06:47:01.673Z,9.280011
2023-09-29T06:47:59.681Z,9.279999
2023-09-29T06:48:59.608Z,9.279999
2023-09-29T06:49:59.579Z,9.279990
2023-09-29T06:50:59.584Z,9.280005
2023-09-29T06:51:59.578Z,9.280023
2023-09-29T06:52:59.523Z,9.280035
2023-09-29T06:53:59.515Z,9.280032
2023-09-29T06:54:59.562Z,9.280069
2023-09-29T06:55:59.596Z,9.279999
2023-09-29T06:56:59.528Z,9.280044
2023-09-29T06:57:59.512Z,9.279936
2023-09-29T06:58:59.606Z,9.280040
2023-09-29T06:59:59.387Z,9.279908
2023-09-29T07:01:02.096Z,9.279842
2023-09-29T07:02:00.405Z,9.279961
2023-09-29T07:02:59.344Z,9.280017
2023-09-29T07:04:01.968Z,9.279907
2023-09-29T07:05:00.367Z,9.279884
2023-09-29T07:05:59.277Z,9.279861
2023-09-29T07:06:59.240Z,9.279885
2023-09-29T07:07:59.210Z,9.279946
2023-09-29T07:08:59.237Z,9.279936
2023-09-29T07:09:59.188Z,9.280013
2023-09-29T07:10:59.176Z,9.279968
2023-09-29T07:11:59.167Z,9.279878
2023-09-29T07:12:59.108Z,9.279892
2023-09-29T07:13:59.096Z,9.279901
2023-09-29T07:14:59.113Z,9.279881
2023-09-29T07:15:59.040Z,9.279835
2023-09-29T07:16:59.034Z,9.279857
2023-09-29T07:17:59.055Z,9.279932
2023-09-29T07:18:59.192Z,9.279984
2023-09-29T07:19:58.982Z,9.279935
2023-09-29T07:20:58.997Z,9.279902
2023-09-29T07:21:58.920Z,9.279873
2023-09-29T07:22:58.905Z,9.279851
2023-09-29T07:23:59.038Z,9.279882
2023-09-29T07:24:58.908Z,9.279857
2023-09-29T07:25:58.837Z,9.279776
2023-09-29T07:26:58.868Z,9.279868
2023-09-29T07:27:58.811Z,9.279866
2023-09-29T07:28:58.990Z,9.279868
2023-09-29T07:29:58.958Z,9.279839
2023-09-29T07:30:58.768Z,9.279805
2023-09-29T07:31:58.711Z,9.279861
2023-09-29T07:32:58.753Z,9.279842
2023-09-29T07:33:58.701Z,9.279860
2023-09-29T07:34:58.651Z,9.279961
2023-09-29T07:35:58.659Z,9.280004
2023-09-29T07:36:58.630Z,9.279895
2023-09-29T07:37:58.613Z,9.279875
2023-09-29T07:38:58.751Z,9.279840
2023-09-29T07:39:58.548Z,9.279953
2023-09-29T07:40:58.526Z,9.279834
2023-09-29T07:41:58.525Z,9.279792
2023-09-29T07:42:58.503Z,9.279827
2023-09-29T07:43:58.463Z,9.279931
2023-09-29T07:44:58.503Z,9.279901
2023-09-29T07:45:58.455Z,9.279906
2023-09-29T07:46:58.393Z,9.279886
2023-09-29T07:47:58.511Z,9.279698
2023-09-29T07:48:58.582Z,9.279802
2023-09-29T07:49:58.358Z,9.279864
2023-09-29T07:50:58.334Z,9.279870
2023-09-29T07:51:58.332Z,9.279882
2023-09-29T07:52:58.317Z,9.279818
2023-09-29T07:53:58.281Z,9.279901
2023-09-29T07:54:58.231Z,9.279893
2023-09-29T07:55:58.223Z,9.279920
2023-09-29T07:56:58.321Z,9.279816
2023-09-29T07:57:58.176Z,9.279720
2023-09-29T07:58:58.180Z,9.279748
2023-09-29T07:59:58.169Z,9.279815
2023-09-29T08:00:58.115Z,9.279844
2023-09-29T08:01:58.180Z,9.279896
2023-09-29T08:02:58.313Z,9.279859
2023-09-29T08:03:58.192Z,9.279947
2023-09-29T08:04:58.047Z,9.279973
2023-09-29T08:05:58.106Z,9.280008
2023-09-29T08:06:58.047Z,9.280044
2023-09-29T08:07:58.001Z,9.280030
2023-09-29T08:08:58.372Z,9.279998
2023-09-29T08:09:57.950Z,9.279911
2023-09-29T08:10:57.955Z,9.280018
2023-09-29T08:11:57.940Z,9.280127
2023-09-29T08:12:57.891Z,9.279954
2023-09-29T08:13:57.857Z,9.279954
2023-09-29T08:14:57.915Z,9.279989
2023-09-29T08:15:57.839Z,9.280059
2023-09-29T08:16:57.843Z,9.280138
2023-09-29T08:17:57.869Z,9.280043
2023-09-29T08:18:58.023Z,9.279962
2023-09-29T08:19:57.763Z,9.279880
2023-09-29T08:20:57.796Z,9.279859
2023-09-29T08:21:57.701Z,9.279821
2023-09-29T08:22:57.692Z,9.279835
2023-09-29T08:23:57.670Z,9.279859
2023-09-29T08:24:57.685Z,9.279890
2023-09-29T08:25:57.618Z,9.279930
2023-09-29T08:26:57.612Z,9.280081
2023-09-29T08:27:57.582Z,9.280053
2023-09-29T08:28:57.756Z,9.279967
2023-09-29T08:29:57.578Z,9.279960
2023-09-29T08:30:57.790Z,9.279942
2023-09-29T08:31:57.505Z,9.279909
2023-09-29T08:33:06.759Z,9.279907
2023-09-29T08:33:59.576Z,9.279906
2023-09-29T08:34:57.467Z,9.279901
2023-09-29T08:35:57.535Z,9.279961
2023-09-29T08:36:57.407Z,9.279916
2023-09-29T08:37:57.397Z,9.279881
2023-09-29T08:38:57.601Z,9.279916
2023-09-29T08:39:57.351Z,9.279983
2023-09-29T08:40:57.329Z,9.279958
2023-09-29T08:41:57.326Z,9.279998
2023-09-29T08:42:57.293Z,9.280013
2023-09-29T08:44:07.206Z,9.280005
2023-09-29T08:44:59.337Z,9.279995
2023-09-29T08:45:57.260Z,9.279947
2023-09-29T08:46:57.216Z,9.279948
2023-09-29T08:47:58.100Z,9.279965
2023-09-29T08:48:57.386Z,9.279972
2023-09-29T08:49:58.159Z,9.279978
2023-09-29T08:50:57.264Z,9.279978
2023-09-29T08:51:57.115Z,9.279957
2023-09-29T08:52:58.131Z,9.279981
2023-09-29T08:53:57.129Z,9.279951
2023-09-29T08:54:57.066Z,9.279969
2023-09-29T08:55:57.045Z,9.280024
2023-09-29T08:56:57.068Z,9.280072
2023-09-29T08:57:57.198Z,9.280001
2023-09-29T08:58:57.270Z,9.280016
2023-09-29T08:59:57.009Z,9.280076
2023-09-29T09:00:57.960Z,9.279971
2023-09-29T09:01:56.962Z,9.280008
2023-09-29T09:02:57.045Z,9.279992
2023-09-29T09:03:57.515Z,9.279975
2023-09-29T09:04:56.875Z,9.279989
2023-09-29T09:05:56.920Z,9.280030
2023-09-29T09:06:56.865Z,9.279952
2023-09-29T09:07:56.827Z,9.279940
2023-09-29T09:08:56.867Z,9.279967
2023-09-29T09:09:56.792Z,9.279941
2023-09-29T09:10:56.769Z,9.279999
2023-09-29T09:11:56.800Z,9.280000
2023-09-29T09:12:56.732Z,9.280012
2023-09-29T09:13:56.830Z,9.280043
2023-09-29T09:14:56.713Z,9.279994
2023-09-29T09:15:56.719Z,9.280025
2023-09-29T09:16:56.680Z,9.280033
2023-09-29T09:17:56.714Z,9.279965
2023-09-29T09:18:56.734Z,9.279950
2023-09-29T09:19:56.606Z,9.279958
2023-09-29T09:20:56.682Z,9.279911
2023-09-29T09:21:56.592Z,9.280023
2023-09-29T09:22:56.551Z,9.280034
2023-09-29T09:23:56.634Z,9.280017
2023-09-29T09:24:56.517Z,9.279967
2023-09-29T09:25:56.533Z,9.279940
2023-09-29T09:26:56.498Z,9.280009
2023-09-29T09:27:56.458Z,9.279972
2023-09-29T09:28:56.454Z,9.279986
2023-09-29T09:29:56.473Z,9.280004
2023-09-29T09:30:56.442Z,9.280008
2023-09-29T09:31:56.416Z,9.280008
2023-09-29T09:32:56.422Z,9.280005
2023-09-29T09:33:56.529Z,9.280011
2023-09-29T09:34:56.330Z,9.279994
2023-09-29T09:35:56.379Z,9.280045
2023-09-29T09:36:56.296Z,9.280034
2023-09-29T09:37:56.279Z,9.280028
2023-09-29T09:38:56.326Z,9.280094
2023-09-29T09:39:56.280Z,9.280053
2023-09-29T09:40:56.228Z,9.279920
2023-09-29T09:41:56.248Z,9.280091
2023-09-29T09:42:56.208Z,9.280082
2023-09-29T09:43:56.323Z,9.279986
2023-09-29T09:44:56.200Z,9.279933
2023-09-29T09:45:56.147Z,9.279934
2023-09-29T09:46:56.123Z,9.279842
2023-09-29T09:47:56.141Z,9.279984
2023-09-29T09:48:56.181Z,9.279912
2023-09-29T09:49:56.061Z,9.279950
2023-09-29T09:50:56.100Z,9.279954
2023-09-29T09:51:56.022Z,9.280065
2023-09-29T09:52:56.054Z,9.280020
2023-09-29T09:53:56.238Z,9.279959
2023-09-29T09:54:55.976Z,9.279861
2023-09-29T09:55:55.954Z,9.279856
2023-09-29T09:56:55.974Z,9.279975
2023-09-29T09:57:55.969Z,9.279831
2023-09-29T09:58:55.922Z,9.279706
2023-09-29T09:59:55.929Z,9.279846
2023-09-29T10:00:55.915Z,9.279759
2023-09-29T10:01:55.871Z,9.279770
2023-09-29T10:02:55.920Z,9.279851
2023-09-29T10:03:56.480Z,9.279960
2023-09-29T10:04:55.877Z,9.279937
2023-09-29T10:05:55.823Z,9.279908
2023-09-29T10:06:55.754Z,9.279807
2023-09-29T10:07:55.769Z,9.279923
2023-09-29T10:08:55.755Z,9.279916
2023-09-29T10:09:55.698Z,9.279904
2023-09-29T10:10:55.700Z,9.279951
2023-09-29T10:11:55.730Z,9.279864
2023-09-29T10:12:55.648Z,9.279720
2023-09-29T10:13:55.788Z,9.279796
2023-09-29T10:14:55.703Z,9.279918
2023-09-29T10:15:55.596Z,9.279907
2023-09-29T10:16:55.600Z,9.279903
2023-09-29T10:17:57.739Z,9.279902
2023-09-29T10:18:56.537Z,9.279994
2023-09-29T10:19:55.533Z,9.279676
2023-09-29T10:20:55.557Z,9.279788
2023-09-29T10:21:55.508Z,9.279893
2023-09-29T10:22:55.480Z,9.279919
2023-09-29T10:23:55.862Z,9.279766
2023-09-29T10:24:55.425Z,9.279826
2023-09-29T10:25:55.433Z,9.279910
2023-09-29T10:26:55.439Z,9.280015
2023-09-29T10:27:55.366Z,9.279935
2023-09-29T10:28:55.377Z,9.279769
2023-09-29T10:29:55.346Z,9.279699
2023-09-29T10:30:55.337Z,9.279877
2023-09-29T10:31:55.341Z,9.279950
2023-09-29T10:32:55.369Z,9.279916
2023-09-29T10:33:56.080Z,9.279989
2023-09-29T10:34:55.241Z,9.279974
2023-09-29T10:35:55.246Z,9.279996
2023-09-29T10:36:55.198Z,9.279991
2023-09-29T10:37:55.183Z,9.279982
2023-09-29T10:38:55.276Z,9.280002
2023-09-29T10:39:55.167Z,9.279921
2023-09-29T10:40:55.155Z,9.279888
2023-09-29T10:41:55.138Z,9.280026
2023-09-29T10:42:55.092Z,9.279914
2023-09-29T10:43:55.216Z,9.279854
2023-09-29T10:44:55.094Z,9.279979
2023-09-29T10:45:56.146Z,9.279763
2023-09-29T10:46:55.012Z,9.279778
2023-09-29T10:47:55.110Z,9.279820
2023-09-29T10:48:55.079Z,9.279763
2023-09-29T10:49:54.985Z,9.280099
2023-09-29T10:50:54.995Z,9.280014
2023-09-29T10:51:54.944Z,9.279936
2023-09-29T10:52:54.906Z,9.279910
2023-09-29T10:53:55.117Z,9.279895
2023-09-29T10:54:54.892Z,9.279890
2023-09-29T10:55:54.851Z,9.279897
2023-09-29T10:56:54.991Z,9.279884
2023-09-29T10:57:54.811Z,9.279904
2023-09-29T10:58:54.819Z,9.279924
2023-09-29T10:59:54.768Z,9.279945
2023-09-29T11:00:54.779Z,9.279991
2023-09-29T11:01:54.762Z,9.280001
2023-09-29T11:02:54.813Z,9.279889
2023-09-29T11:03:54.822Z,9.279853
2023-09-29T11:04:54.710Z,9.279941
2023-09-29T11:05:54.738Z,9.279993
2023-09-29T11:06:54.647Z,9.279972
2023-09-29T11:07:54.651Z,9.279932
2023-09-29T11:08:54.734Z,9.279875
2023-09-29T11:09:54.586Z,9.279965
2023-09-29T11:10:54.578Z,9.279905
2023-09-29T11:11:54.571Z,9.279970
2023-09-29T11:12:54.554Z,9.280016
2023-09-29T11:13:54.665Z,9.280005
2023-09-29T11:14:54.585Z,9.279967
2023-09-29T11:15:54.506Z,9.279871
2023-09-29T11:16:54.480Z,9.279891
2023-09-29T11:17:54.529Z,9.279888
2023-09-29T11:18:54.482Z,9.279994
2023-09-29T11:19:54.401Z,9.280000
2023-09-29T11:20:54.421Z,9.280075
2023-09-29T11:21:54.396Z,9.280044
2023-09-29T11:22:54.345Z,9.280012
2023-09-29T11:23:54.464Z,9.280068
2023-09-29T11:24:54.308Z,9.280047
2023-09-29T11:25:54.305Z,9.280002
2023-09-29T11:26:54.323Z,9.280042
2023-09-29T11:27:54.249Z,9.280060
2023-09-29T11:28:54.233Z,9.280032
2023-09-29T11:29:54.274Z,9.280069
2023-09-29T11:30:54.233Z,9.280080
2023-09-29T11:31:54.208Z,9.279979
2023-09-29T11:32:54.284Z,9.280005
2023-09-29T11:33:54.267Z,9.280090
2023-09-29T11:34:54.148Z,9.280134
2023-09-29T11:36:05.951Z,9.280099
2023-09-29T11:36:56.120Z,9.280039
2023-09-29T11:37:54.074Z,9.280047
2023-09-29T11:38:54.168Z,9.280031
2023-09-29T11:39:54.032Z,9.280016
2023-09-29T11:40:54.039Z,9.280035
2023-09-29T11:41:54.010Z,9.280014
2023-09-29T11:42:54.024Z,9.280046
2023-09-29T11:43:54.081Z,9.280064